Terminal Aerodrome Forecast
Issued by NWS

Home | Current Version | Previous Version | Text Only | Print | Product List | Glossary On
Versions: 1 2 3 4 5 6 7 8 9 10 11 12 13 14 15
000
FTUS42 KMLB 302320
TAFLEE
TAF
KLEE 302320Z 3100/3124 17008KT P6SM VCSH SCT018 BKN050 BKN080
     FM310200 15006KT P6SM FEW020 SCT040 BKN150
     FM311300 17005KT P6SM VCSH SCT025 OVC100
     FM311800 21014KT P6SM VCSH SCT030 OVC060=

USA.gov is the U.S. government's official web portal to all federal, state and local government web resources and services.